This is the latest recevied weather packets stored in our database for station/object EA3EH-1. If no packets are shown the sender has not sent any weather packets the latest 10 day(s).
| Time | Temp. | Humidity | Pressure | Rain* | Wind** | Luminosity | Snow |
|---|---|---|---|---|---|---|---|
| 1777239104 | 15° C | 67% | 1016 hPa | 0 mm | - | - | - |
| 1777238804 | 15° C | 66% | 1016 hPa | 0 mm | - | - | - |
| 1777237304 | 15° C | 65% | 1016 hPa | 0 mm | - | - | - |
| 1777237004 | 15° C | 66% | 1016 hPa | 0 mm | - | - | - |
| 1777236704 | 15° C | 65% | 1016 hPa | 0 mm | - | - | - |
| 1777235504 | 15.56° C | 63% | 1016 hPa | 0 mm | - | - | - |
| 1777234304 | 15.56° C | 61% | 1016 hPa | 0 mm | - | - | - |
| 1777234005 | 15.56° C | 59% | 1016 hPa | 0 mm | - | - | - |
| 1777233405 | 16.11° C | 57% | 1016 hPa | 0 mm | - | - | - |
| 1777232505 | 16.67° C | 53% | 1015 hPa | 0 mm | - | - | - |
| 1777232206 | 16.67° C | 54% | 1015 hPa | 0 mm | - | - | - |
| 1777231604 | 17.22° C | 53% | 1015 hPa | 0 mm | - | - | - |
| 1777231306 | 17.22° C | 51% | 1015 hPa | 0 mm | - | - | - |
| 1777228905 | 18.89° C | 41% | 1015 hPa | 0 mm | - | - | - |
| 1777227884 | 18.89° C | 38% | 1014 hPa | 0 mm | - | - | - |
| 1777227285 | 19.44° C | 37% | 1014 hPa | 0 mm | - | - | - |
| 1777225304 | 20.56° C | 33% | 1014 hPa | 0 mm | - | - | - |
| 1777224704 | 20.56° C | 32% | 1014 hPa | 0 mm | - | - | - |
| 1777224404 | 20.56° C | 32% | 1014 hPa | 0 mm | - | - | - |
| 1777222904 | 21.11° C | 32% | 1015 hPa | 0 mm | - | - | - |
| 1777222605 | 20° C | 33% | 1015 hPa | 0 mm | - | - | - |
| 1777222306 | 20° C | 34% | 1015 hPa | 0 mm | - | - | - |
| 1777222004 | 20° C | 33% | 1015 hPa | 0 mm | - | - | - |
| 1777220204 | 20° C | 31% | 1014 hPa | 0 mm | - | - | - |
| 1777219905 | 20° C | 32% | 1014 hPa | 0 mm | - | - | - |
* Rain latest hour (hover to see other rain measurements)
** Current wind speed in m/s (hover to see current wind gust speed)